createdAt,value
2017-10-16T00:00:59.552Z,660.33
2017-10-16T00:03:27.975Z,535.97
2017-10-16T00:05:56.351Z,631.63
2017-10-16T00:08:24.857Z,759.20
2017-10-16T00:10:53.445Z,719.23
2017-10-16T00:13:21.816Z,829.90
2017-10-16T00:15:51.039Z,1174.50
2017-10-16T00:18:19.431Z,537.83
2017-10-16T00:20:47.791Z,353.43
2017-10-16T00:23:16.331Z,340.57
2017-10-16T00:25:44.711Z,728.97
2017-10-16T00:28:13.387Z,929.07
2017-10-16T00:30:42.159Z,701.67
2017-10-16T00:33:11.289Z,399.73
2017-10-16T00:35:39.697Z,594.57
2017-10-16T00:38:08.529Z,604.23
2017-10-16T00:40:36.915Z,379.80
2017-10-16T00:43:05.304Z,368.13
2017-10-16T00:45:33.746Z,403.97
2017-10-16T00:48:02.945Z,342.20
2017-10-16T00:50:32.120Z,487.60
2017-10-16T00:53:00.637Z,426.13
2017-10-16T00:55:29.839Z,434.97
2017-10-16T00:57:58.247Z,482.23
2017-10-16T01:00:26.709Z,269.37
2017-10-16T01:02:55.096Z,490.87
2017-10-16T01:05:23.551Z,498.10
2017-10-16T01:07:53.010Z,941.80
2017-10-16T01:10:21.488Z,718.33
2017-10-16T01:12:49.917Z,695.80
2017-10-16T01:15:19.405Z,741.73
2017-10-16T01:17:47.785Z,478.63
2017-10-16T01:20:16.210Z,441.43
2017-10-16T01:22:44.665Z,418.23
2017-10-16T01:25:13.113Z,816.93
2017-10-16T01:27:41.532Z,410.27
2017-10-16T01:30:10.455Z,468.83
2017-10-16T01:32:38.857Z,255.10
2017-10-16T01:35:07.319Z,378.30
2017-10-16T01:37:35.898Z,456.80
2017-10-16T01:40:05.162Z,242.17
2017-10-16T01:42:33.576Z,287.33
2017-10-16T01:45:02.031Z,286.97
2017-10-16T01:47:30.440Z,256.97
2017-10-16T01:49:59.125Z,246.60
2017-10-16T01:52:27.657Z,196.73
2017-10-16T01:54:56.097Z,207.37
2017-10-16T01:57:24.520Z,177.50
2017-10-16T01:59:53.721Z,163.93
2017-10-16T02:02:22.961Z,169.53
2017-10-16T02:04:51.340Z,154.43
2017-10-16T02:07:19.896Z,132.77
2017-10-16T02:09:48.293Z,136.33
2017-10-16T02:12:16.733Z,118.40
2017-10-16T02:14:46.050Z,98.83
2017-10-16T02:17:14.421Z,135.33
2017-10-16T02:19:43.575Z,120.37
2017-10-16T02:22:12.070Z,104.20
2017-10-16T02:24:40.472Z,103.47
2017-10-16T02:27:09.626Z,125.97
2017-10-16T02:29:38.034Z,138.30
2017-10-16T02:32:06.978Z,119.17
2017-10-16T02:34:35.350Z,140.70
2017-10-16T02:37:03.917Z,138.30
2017-10-16T02:39:32.301Z,116.50
2017-10-16T02:42:00.693Z,128.77
2017-10-16T02:44:29.111Z,158.43
2017-10-16T02:46:57.489Z,149.30
2017-10-16T02:49:25.894Z,189.23
2017-10-16T02:51:55.380Z,240.63
2017-10-16T02:54:23.762Z,263.37
2017-10-16T02:56:52.158Z,366.90
2017-10-16T02:59:21.536Z,239.93
2017-10-16T03:01:49.910Z,322.90
2017-10-16T03:04:18.295Z,242.07
2017-10-16T03:06:47.792Z,414.00
2017-10-16T03:09:16.226Z,664.60
2017-10-16T03:11:44.671Z,531.00
2017-10-16T03:14:13.202Z,479.63
2017-10-16T03:16:41.695Z,675.43
2017-10-16T03:19:10.099Z,624.83
2017-10-16T03:21:38.612Z,364.23
2017-10-16T03:24:07.003Z,545.93
2017-10-16T03:26:35.367Z,461.90
2017-10-16T03:29:03.802Z,365.83
2017-10-16T03:31:32.944Z,385.70
2017-10-16T03:34:01.559Z,458.13
2017-10-16T03:36:30.056Z,504.47
2017-10-16T03:38:59.199Z,386.30
2017-10-16T03:41:28.353Z,260.10
2017-10-16T03:43:56.755Z,404.03
2017-10-16T03:46:25.134Z,525.60
2017-10-16T03:48:53.570Z,403.30
2017-10-16T03:51:22.181Z,783.93
2017-10-16T03:53:50.617Z,711.27
2017-10-16T03:56:18.980Z,509.93
2017-10-16T03:58:48.259Z,490.80
2017-10-16T04:01:16.637Z,457.30
2017-10-16T04:03:45.049Z,691.23
2017-10-16T04:06:14.385Z,463.47
2017-10-16T04:08:42.752Z,645.50
2017-10-16T04:11:11.135Z,439.60
2017-10-16T04:13:39.573Z,517.57
2017-10-16T04:16:08.716Z,383.67
2017-10-16T04:18:37.295Z,686.87
2017-10-16T04:21:05.817Z,570.50
2017-10-16T04:23:34.204Z,418.83
2017-10-16T04:26:03.403Z,350.73
2017-10-16T04:28:32.301Z,551.47
2017-10-16T04:31:01.482Z,478.73
2017-10-16T04:33:29.910Z,479.97
2017-10-16T04:35:58.643Z,408.50
2017-10-16T04:38:27.074Z,411.47
2017-10-16T04:40:55.450Z,634.87
2017-10-16T04:43:24.232Z,921.73
2017-10-16T04:45:52.671Z,416.97
2017-10-16T04:48:21.074Z,340.30
2017-10-16T04:50:50.427Z,281.53
2017-10-16T04:53:18.801Z,299.97
2017-10-16T04:55:47.385Z,382.87
2017-10-16T04:58:16.104Z,218.60
2017-10-16T05:00:44.497Z,419.00
2017-10-16T05:03:12.911Z,490.43
2017-10-16T05:05:41.688Z,309.83
2017-10-16T05:08:10.115Z,574.67
2017-10-16T05:10:38.529Z,202.90
2017-10-16T05:13:07.967Z,309.87
2017-10-16T05:15:36.326Z,356.00
2017-10-16T05:18:04.723Z,386.07
2017-10-16T05:20:33.198Z,286.87
2017-10-16T05:23:01.630Z,368.73
2017-10-16T05:25:30.800Z,553.47
2017-10-16T05:27:59.249Z,513.47
2017-10-16T05:30:27.691Z,449.07
2017-10-16T05:32:56.104Z,487.57
2017-10-16T05:35:24.574Z,415.40
2017-10-16T05:37:54.135Z,418.43
2017-10-16T05:40:23.270Z,452.93
2017-10-16T05:42:52.564Z,352.90
2017-10-16T05:45:21.766Z,355.13
2017-10-16T05:47:50.989Z,406.57
2017-10-16T05:50:19.543Z,423.67
2017-10-16T05:52:47.997Z,431.20
2017-10-16T05:55:16.452Z,602.10
2017-10-16T05:57:44.964Z,591.53
2017-10-16T06:00:13.393Z,296.07
2017-10-16T06:02:41.776Z,549.17
2017-10-16T06:05:10.591Z,367.63
2017-10-16T06:07:39.075Z,493.00
2017-10-16T06:10:07.528Z,410.87
2017-10-16T06:12:35.984Z,341.10
2017-10-16T06:15:05.184Z,324.20
2017-10-16T06:17:34.392Z,234.50
2017-10-16T06:20:02.893Z,207.83
2017-10-16T06:22:31.540Z,213.33
2017-10-16T06:25:00.710Z,197.80
2017-10-16T06:27:29.315Z,195.60
2017-10-16T06:29:58.495Z,298.87
2017-10-16T06:32:26.923Z,225.60
2017-10-16T06:34:55.574Z,175.90
2017-10-16T06:37:23.999Z,255.93
2017-10-16T06:39:53.010Z,287.83
2017-10-16T06:42:21.531Z,283.20
2017-10-16T06:44:50.687Z,282.60
2017-10-16T06:47:19.575Z,207.90
2017-10-16T06:49:48.062Z,179.87
2017-10-16T06:52:16.534Z,283.40
2017-10-16T06:54:44.910Z,210.83
2017-10-16T06:57:14.191Z,294.80
2017-10-16T06:59:42.924Z,188.13
2017-10-16T07:02:12.205Z,227.80
2017-10-16T07:04:40.830Z,178.20
2017-10-16T07:07:10.985Z,230.60
2017-10-16T07:09:39.392Z,200.00
2017-10-16T07:12:08.241Z,243.60
2017-10-16T07:14:36.649Z,238.80
2017-10-16T07:17:05.079Z,219.23
2017-10-16T07:19:34.932Z,258.37
2017-10-16T07:22:03.323Z,256.27
2017-10-16T07:24:31.971Z,288.70
2017-10-16T07:27:00.563Z,166.13
2017-10-16T07:29:28.975Z,221.20
2017-10-16T07:31:57.372Z,222.43
2017-10-16T07:34:25.805Z,201.13
2017-10-16T07:36:54.265Z,196.37
2017-10-16T07:39:23.472Z,176.10
2017-10-16T07:41:52.834Z,172.40
2017-10-16T07:44:21.276Z,179.93
2017-10-16T07:46:49.790Z,162.20
2017-10-16T07:49:18.272Z,161.90
2017-10-16T07:51:46.693Z,166.77
2017-10-16T07:54:15.174Z,119.60
2017-10-16T07:56:44.377Z,134.33
2017-10-16T07:59:12.778Z,122.17
2017-10-16T08:01:41.568Z,130.07
2017-10-16T08:04:10.190Z,126.77
2017-10-16T08:06:38.603Z,99.53
2017-10-16T08:09:07.827Z,113.83
2017-10-16T08:11:36.476Z,99.37
2017-10-16T08:14:05.691Z,107.13
2017-10-16T08:16:34.087Z,138.40
2017-10-16T08:19:02.710Z,121.00
2017-10-16T08:21:31.169Z,100.70
2017-10-16T08:23:59.612Z,105.83
2017-10-16T08:26:28.588Z,124.57
2017-10-16T08:28:57.814Z,100.63
2017-10-16T08:31:26.257Z,120.00
2017-10-16T08:33:54.854Z,100.23
2017-10-16T08:36:23.297Z,78.07
2017-10-16T08:38:51.888Z,103.57
2017-10-16T08:41:20.964Z,86.53
2017-10-16T08:43:50.846Z,71.17
2017-10-16T08:46:19.282Z,79.80
2017-10-16T08:48:49.033Z,94.93
2017-10-16T08:51:18.374Z,84.83
2017-10-16T08:53:46.953Z,84.00
2017-10-16T08:56:15.655Z,92.27
2017-10-16T08:58:45.609Z,85.17
2017-10-16T09:01:14.083Z,88.97
2017-10-16T09:03:44.351Z,65.20
2017-10-16T09:06:12.802Z,84.73
2017-10-16T09:08:41.284Z,85.70
2017-10-16T09:11:09.840Z,80.27
2017-10-16T09:13:38.308Z,88.80
2017-10-16T09:16:06.846Z,81.73
2017-10-16T09:18:35.487Z,94.37
2017-10-16T09:21:04.590Z,116.33
2017-10-16T09:23:33.063Z,109.73
2017-10-16T09:26:01.990Z,86.90
2017-10-16T09:28:32.657Z,88.50
2017-10-16T09:31:02.805Z,85.80
2017-10-16T09:33:31.312Z,95.13
2017-10-16T09:36:00.510Z,92.17
2017-10-16T09:38:29.765Z,87.40
2017-10-16T09:40:59.074Z,80.40
2017-10-16T09:43:27.516Z,81.23
2017-10-16T09:45:56.411Z,82.67
2017-10-16T09:48:25.556Z,71.73
2017-10-16T09:50:54.576Z,72.53
2017-10-16T09:53:23.564Z,85.40
2017-10-16T09:55:53.992Z,89.00
2017-10-16T09:58:23.185Z,95.70
2017-10-16T10:00:53.601Z,76.77
2017-10-16T10:03:23.064Z,80.60
2017-10-16T10:05:51.538Z,74.90
2017-10-16T10:08:20.652Z,70.53
2017-10-16T10:10:49.142Z,71.27
2017-10-16T10:13:18.249Z,74.87
2017-10-16T10:15:46.971Z,71.73
2017-10-16T10:18:15.372Z,64.37
2017-10-16T10:20:43.832Z,73.77
2017-10-16T10:23:13.082Z,72.27
2017-10-16T10:25:41.539Z,65.10
2017-10-16T10:28:10.222Z,69.00
2017-10-16T10:30:38.707Z,69.47
2017-10-16T10:33:09.924Z,69.83
2017-10-16T10:35:39.274Z,74.13
2017-10-16T10:38:07.803Z,82.53
2017-10-16T10:40:36.987Z,74.13
2017-10-16T10:43:05.403Z,72.27
2017-10-16T10:45:37.332Z,82.17
2017-10-16T10:48:06.600Z,64.13
2017-10-16T10:50:35.000Z,60.17
2017-10-16T10:53:04.395Z,71.57
2017-10-16T10:55:32.800Z,64.07
2017-10-16T10:58:01.226Z,64.13
2017-10-16T11:00:29.782Z,57.10
2017-10-16T11:02:58.300Z,60.90
2017-10-16T11:05:26.902Z,63.33
2017-10-16T11:07:56.793Z,62.40
2017-10-16T11:10:25.975Z,68.27
2017-10-16T11:12:55.426Z,69.93
2017-10-16T11:15:25.279Z,65.47
2017-10-16T11:17:53.893Z,62.80
2017-10-16T11:20:26.873Z,74.30
2017-10-16T11:22:57.174Z,72.77
2017-10-16T11:25:25.646Z,71.73
2017-10-16T11:27:57.087Z,72.07
2017-10-16T11:30:26.066Z,62.73
2017-10-16T11:32:55.326Z,59.13
2017-10-16T11:35:24.407Z,71.67
2017-10-16T11:37:54.004Z,66.27
2017-10-16T11:40:22.556Z,63.63
2017-10-16T11:42:54.636Z,59.20
2017-10-16T11:45:23.264Z,76.40
2017-10-16T11:47:51.686Z,61.77
2017-10-16T11:50:21.404Z,59.20
2017-10-16T11:52:50.069Z,66.40
2017-10-16T11:55:19.296Z,67.20
2017-10-16T11:57:47.788Z,67.70
2017-10-16T12:00:16.535Z,57.33
2017-10-16T12:02:46.679Z,62.30
2017-10-16T12:05:15.184Z,62.93
2017-10-16T12:07:44.648Z,59.10
2017-10-16T12:10:13.363Z,60.60
2017-10-16T12:12:41.833Z,61.77
2017-10-16T12:15:10.509Z,55.77
2017-10-16T12:17:39.071Z,64.87
2017-10-16T12:20:08.292Z,52.90
2017-10-16T12:22:36.771Z,50.03
2017-10-16T12:25:08.145Z,59.73
2017-10-16T12:27:37.834Z,45.53
2017-10-16T12:30:07.228Z,48.27
2017-10-16T12:32:37.706Z,47.33
2017-10-16T12:35:08.326Z,49.37
2017-10-16T12:37:38.158Z,53.27
2017-10-16T12:40:07.681Z,62.10
2017-10-16T12:42:36.246Z,51.90
2017-10-16T12:45:05.484Z,51.00
2017-10-16T12:47:36.417Z,51.60
2017-10-16T12:50:08.214Z,45.20
2017-10-16T12:52:37.079Z,46.17
2017-10-16T12:55:06.113Z,45.37
2017-10-16T12:57:35.413Z,40.73
2017-10-16T13:00:05.391Z,62.77
2017-10-16T13:02:34.633Z,40.20
2017-10-16T13:05:26.895Z,37.97
2017-10-16T13:07:55.953Z,45.30
2017-10-16T13:10:26.633Z,41.80
2017-10-16T13:12:55.861Z,46.30
2017-10-16T13:15:26.171Z,41.40
2017-10-16T13:17:55.897Z,45.17
2017-10-16T13:20:24.517Z,35.70
2017-10-16T13:22:53.018Z,36.63
2017-10-16T13:25:22.393Z,37.67
2017-10-16T13:27:51.341Z,42.30
2017-10-16T13:30:22.467Z,31.80
2017-10-16T13:32:52.403Z,33.80
2017-10-16T13:35:20.931Z,43.50
2017-10-16T13:37:49.434Z,33.53
2017-10-16T13:40:19.536Z,34.30
2017-10-16T13:42:48.005Z,36.30
2017-10-16T13:45:17.407Z,39.10
2017-10-16T13:47:46.061Z,39.20
2017-10-16T13:50:14.617Z,40.23
2017-10-16T13:52:46.128Z,34.40
2017-10-16T13:55:15.464Z,46.30
2017-10-16T13:57:43.982Z,42.13
2017-10-16T14:00:12.482Z,41.30
2017-10-16T14:02:41.390Z,39.70
2017-10-16T14:05:09.889Z,39.97
2017-10-16T14:07:38.912Z,38.33
2017-10-16T14:10:08.224Z,35.13
2017-10-16T14:12:36.718Z,35.63
2017-10-16T14:15:05.187Z,38.87
2017-10-16T14:17:35.121Z,42.67
2017-10-16T14:20:04.175Z,34.90
2017-10-16T14:22:32.662Z,40.07
2017-10-16T14:25:01.315Z,36.60
2017-10-16T14:27:29.802Z,47.33
2017-10-16T14:29:58.680Z,36.33
2017-10-16T14:32:28.114Z,35.93
2017-10-16T14:34:57.308Z,35.43
2017-10-16T14:37:26.542Z,34.37
2017-10-16T14:39:55.880Z,37.50
2017-10-16T14:42:25.804Z,32.60
2017-10-16T14:44:54.307Z,34.20
2017-10-16T14:47:22.790Z,37.93
2017-10-16T14:49:51.374Z,47.50
2017-10-16T14:52:21.076Z,32.00
2017-10-16T14:54:53.132Z,34.80
2017-10-16T14:57:22.396Z,25.80
2017-10-16T14:59:50.929Z,35.27
2017-10-16T15:02:22.064Z,34.20
2017-10-16T15:04:51.338Z,28.53
2017-10-16T15:07:19.840Z,26.40
2017-10-16T15:09:49.168Z,29.60
2017-10-16T15:12:18.577Z,25.13
2017-10-16T15:14:47.022Z,33.83
2017-10-16T15:17:18.402Z,31.20
2017-10-16T15:19:46.993Z,29.60
2017-10-16T15:22:15.465Z,29.03
2017-10-16T15:24:43.973Z,27.33
2017-10-16T15:27:13.427Z,32.57
2017-10-16T15:29:43.539Z,26.63
2017-10-16T15:32:13.037Z,28.80
2017-10-16T15:34:41.506Z,22.63
2017-10-16T15:37:09.949Z,26.70
2017-10-16T15:39:38.508Z,24.70
2017-10-16T15:42:06.933Z,27.33
2017-10-16T15:44:35.500Z,29.17
2017-10-16T15:47:04.010Z,29.40
2017-10-16T15:49:32.766Z,27.37
2017-10-16T15:52:01.288Z,20.40
2017-10-16T15:54:30.128Z,49.63
2017-10-16T15:56:59.217Z,32.87
2017-10-16T15:59:28.281Z,27.80
2017-10-16T16:01:57.142Z,29.53
2017-10-16T16:04:26.573Z,31.80
2017-10-16T16:06:55.877Z,27.03
2017-10-16T16:09:25.328Z,31.23
2017-10-16T16:11:53.776Z,34.27
2017-10-16T16:14:23.023Z,29.87
2017-10-16T16:16:51.502Z,29.57
2017-10-16T16:19:20.777Z,34.23
2017-10-16T16:21:50.124Z,28.43
2017-10-16T16:24:18.632Z,28.27
2017-10-16T16:26:47.901Z,30.00
2017-10-16T16:29:16.373Z,30.37
2017-10-16T16:31:45.852Z,39.50
2017-10-16T16:34:14.306Z,32.20
2017-10-16T16:36:43.539Z,26.73
2017-10-16T16:39:12.301Z,28.70
2017-10-16T16:41:40.902Z,29.70
2017-10-16T16:44:09.422Z,44.87
2017-10-16T16:46:38.559Z,29.10
2017-10-16T16:49:08.381Z,29.10
2017-10-16T16:51:36.810Z,47.13
2017-10-16T16:54:05.564Z,35.13
2017-10-16T16:56:34.080Z,26.73
2017-10-16T16:59:02.895Z,24.40
2017-10-16T17:01:32.254Z,30.67
2017-10-16T17:04:01.454Z,26.13
2017-10-16T17:06:29.894Z,31.77
2017-10-16T17:08:58.530Z,34.13
2017-10-16T17:11:27.209Z,37.23
2017-10-16T17:13:56.437Z,42.13
2017-10-16T17:16:25.645Z,46.87
2017-10-16T17:18:54.863Z,55.40
2017-10-16T17:21:23.280Z,40.27
2017-10-16T17:23:51.856Z,46.67
2017-10-16T17:26:20.278Z,36.80
2017-10-16T17:28:49.502Z,43.30
2017-10-16T17:31:18.075Z,33.30
2017-10-16T17:33:46.570Z,38.33
2017-10-16T17:36:15.063Z,33.00
2017-10-16T17:38:43.614Z,35.70
2017-10-16T17:41:12.795Z,40.50
2017-10-16T17:43:41.268Z,43.70
2017-10-16T17:46:11.057Z,38.40
2017-10-16T17:48:39.741Z,43.37
2017-10-16T17:51:08.364Z,36.07
2017-10-16T17:53:38.711Z,47.43
2017-10-16T17:56:07.393Z,32.30
2017-10-16T17:58:36.069Z,39.93
2017-10-16T18:01:06.400Z,37.53
2017-10-16T18:03:35.646Z,51.23
2017-10-16T18:06:04.156Z,52.10
2017-10-16T18:08:33.480Z,76.03
2017-10-16T18:11:02.724Z,55.70
2017-10-16T18:13:31.254Z,56.10
2017-10-16T18:16:00.661Z,72.50
2017-10-16T18:18:29.772Z,58.53
2017-10-16T18:20:58.253Z,46.30
2017-10-16T18:23:28.634Z,48.17
2017-10-16T18:25:57.254Z,46.43
2017-10-16T18:28:25.685Z,50.33
2017-10-16T18:30:54.258Z,53.67
2017-10-16T18:33:23.427Z,48.30
2017-10-16T18:35:51.876Z,50.20
2017-10-16T18:38:21.149Z,42.00
2017-10-16T18:40:49.603Z,58.47
2017-10-16T18:43:17.997Z,43.00
2017-10-16T18:45:46.524Z,46.17
2017-10-16T18:48:15.717Z,46.43
2017-10-16T18:50:45.146Z,54.10
2017-10-16T18:53:13.917Z,50.00
2017-10-16T18:55:43.102Z,56.00
2017-10-16T18:58:12.349Z,48.70
2017-10-16T19:00:41.068Z,45.63
2017-10-16T19:03:09.721Z,57.20
2017-10-16T19:05:38.130Z,53.00
2017-10-16T19:08:07.442Z,47.10
2017-10-16T19:10:36.631Z,42.40
2017-10-16T19:13:05.059Z,41.40
2017-10-16T19:15:33.847Z,48.80
2017-10-16T19:18:02.266Z,44.87
2017-10-16T19:20:30.702Z,51.30
2017-10-16T19:22:59.406Z,59.63
2017-10-16T19:25:27.914Z,49.83
2017-10-16T19:27:56.358Z,51.60
2017-10-16T19:30:24.841Z,50.87
2017-10-16T19:32:53.305Z,69.83
2017-10-16T19:35:22.539Z,54.97
2017-10-16T19:37:51.076Z,55.00
2017-10-16T19:40:20.782Z,58.83
2017-10-16T19:42:50.005Z,50.63
2017-10-16T19:45:18.574Z,40.87
2017-10-16T19:47:47.808Z,51.27
2017-10-16T19:50:16.275Z,42.87
2017-10-16T19:52:44.904Z,46.10
2017-10-16T19:55:13.356Z,49.10
2017-10-16T19:57:41.771Z,47.30
2017-10-16T20:00:10.359Z,56.00
2017-10-16T20:02:38.864Z,56.80
2017-10-16T20:05:07.802Z,66.23
2017-10-16T20:07:36.508Z,55.40
2017-10-16T20:10:04.978Z,59.90
2017-10-16T20:12:34.189Z,57.33
2017-10-16T20:15:02.761Z,56.57
2017-10-16T20:17:31.265Z,58.70
2017-10-16T20:19:59.879Z,49.17
2017-10-16T20:22:28.359Z,50.83
2017-10-16T20:24:56.803Z,54.97
2017-10-16T20:27:26.008Z,65.37
2017-10-16T20:29:55.370Z,55.87
2017-10-16T20:32:23.877Z,56.97
2017-10-16T20:34:52.347Z,61.10
2017-10-16T20:37:20.920Z,54.60
2017-10-16T20:39:49.337Z,54.80
2017-10-16T20:42:17.802Z,66.50
2017-10-16T20:44:46.630Z,61.53
2017-10-16T20:47:15.842Z,54.33
2017-10-16T20:49:44.272Z,51.07
2017-10-16T20:52:12.876Z,60.30
2017-10-16T20:54:42.170Z,50.53
2017-10-16T20:57:11.367Z,56.53
2017-10-16T20:59:40.061Z,61.03
2017-10-16T21:02:09.308Z,51.13
2017-10-16T21:04:37.717Z,59.83
2017-10-16T21:07:06.710Z,58.07
2017-10-16T21:09:35.152Z,64.37
2017-10-16T21:12:03.610Z,58.10
2017-10-16T21:14:32.129Z,63.97
2017-10-16T21:17:00.565Z,66.13
2017-10-16T21:19:29.021Z,71.37
2017-10-16T21:21:57.493Z,59.83
2017-10-16T21:24:25.957Z,77.93
2017-10-16T21:26:54.417Z,75.33
2017-10-16T21:29:23.087Z,59.10
2017-10-16T21:31:51.604Z,62.00
2017-10-16T21:34:20.121Z,73.53
2017-10-16T21:36:48.974Z,62.10
2017-10-16T21:39:18.177Z,73.40
2017-10-16T21:41:46.614Z,82.00
2017-10-16T21:44:15.226Z,97.23
2017-10-16T21:46:44.546Z,81.83
2017-10-16T21:49:13.021Z,229.67
2017-10-16T21:51:41.614Z,108.60
2017-10-16T21:54:10.059Z,153.83
2017-10-16T21:56:38.573Z,109.43
2017-10-16T21:59:07.136Z,145.23
2017-10-16T22:01:35.501Z,187.67
2017-10-16T22:04:04.321Z,125.43
2017-10-16T22:06:32.961Z,141.33
2017-10-16T22:09:01.604Z,249.50
2017-10-16T22:11:30.415Z,133.43
2017-10-16T22:13:59.638Z,127.90
2017-10-16T22:16:28.055Z,164.93
2017-10-16T22:18:56.512Z,391.93
2017-10-16T22:21:24.996Z,338.70
2017-10-16T22:23:53.434Z,345.83
2017-10-16T22:26:22.891Z,551.67
2017-10-16T22:28:51.607Z,159.23
2017-10-16T22:31:20.041Z,141.13
2017-10-16T22:33:48.709Z,144.30
2017-10-16T22:36:17.250Z,190.43
2017-10-16T22:38:45.675Z,218.73
2017-10-16T22:41:14.091Z,322.57
2017-10-16T22:43:42.559Z,227.87
2017-10-16T22:46:11.084Z,256.43
2017-10-16T22:48:41.043Z,545.53
2017-10-16T22:51:09.878Z,201.07
2017-10-16T22:53:38.382Z,317.90
2017-10-16T22:56:06.822Z,489.97
2017-10-16T22:58:35.390Z,424.17
2017-10-16T23:01:03.831Z,280.77
2017-10-16T23:03:32.229Z,414.63
2017-10-16T23:06:00.677Z,457.77
2017-10-16T23:08:29.880Z,283.30
2017-10-16T23:10:58.486Z,573.43
2017-10-16T23:13:27.078Z,716.37
2017-10-16T23:15:55.509Z,690.73
2017-10-16T23:18:23.977Z,660.47
2017-10-16T23:20:52.593Z,544.77
2017-10-16T23:23:22.186Z,508.40
2017-10-16T23:25:51.402Z,360.23
2017-10-16T23:28:19.867Z,359.73
2017-10-16T23:30:49.121Z,721.43
2017-10-16T23:33:17.572Z,596.63
2017-10-16T23:35:46.104Z,579.30
2017-10-16T23:38:16.047Z,423.03
2017-10-16T23:40:44.480Z,483.47
2017-10-16T23:43:13.094Z,599.83
2017-10-16T23:45:41.519Z,260.60
2017-10-16T23:48:10.207Z,501.50
2017-10-16T23:50:38.725Z,466.73
2017-10-16T23:53:07.942Z,319.07
2017-10-16T23:55:36.388Z,422.07
2017-10-16T23:58:04.988Z,1029.27
